Time,TemperatureF,DewpointF,PressureIn,WindDirection,WindDirectionDegrees,WindSpeedMPH,WindSpeedGustMPH,Humidity,HourlyPrecipIn,Conditions,Clouds,dailyrainin,SoftwareType,DateUTC
2013-01-21 00:03:00,27.3,9.3,29.93,West,277,2.2,2.7,46,0.00,,---,0.00,VWS V14.01,2013-01-21 07:03:00,
2013-01-21 00:08:00,27.0,9.4,29.93,West,277,0.0,0.0,47,0.00,,---,0.00,VWS V14.01,2013-01-21 07:08:00,
2013-01-21 00:13:00,26.8,9.7,29.93,WNW,283,0.0,2.2,48,0.00,,---,0.00,VWS V14.01,2013-01-21 07:13:00,
2013-01-21 00:18:00,27.0,9.9,29.93,West,280,0.0,0.0,48,0.00,,---,0.00,VWS V14.01,2013-01-21 07:18:00,
2013-01-21 00:23:00,26.8,9.7,29.93,West,273,2.7,3.1,48,0.00,,---,0.00,VWS V14.01,2013-01-21 07:23:00,
2013-01-21 00:28:00,26.8,9.7,29.93,West,272,0.0,0.0,48,0.00,,---,0.00,VWS V14.01,2013-01-21 07:28:00,
2013-01-21 00:33:00,26.4,9.4,29.91,West,273,0.0,0.0,48,0.00,,---,0.00,VWS V14.01,2013-01-21 07:33:00,
2013-01-21 00:38:00,26.1,9.5,29.91,West,272,0.0,0.0,49,0.00,,---,0.00,VWS V14.01,2013-01-21 07:38:00,
2013-01-21 00:43:00,25.7,9.6,29.91,West,272,0.0,0.0,50,0.00,,---,0.00,VWS V14.01,2013-01-21 07:43:00,
2013-01-21 00:48:00,25.5,9.9,29.91,WNW,297,3.1,3.1,51,0.00,,---,0.00,VWS V14.01,2013-01-21 07:48:00,
2013-01-21 00:53:00,25.7,10.1,29.91,WNW,297,0.0,0.0,51,0.00,,---,0.00,VWS V14.01,2013-01-21 07:53:00,
2013-01-21 00:58:00,25.5,9.9,29.91,WNW,297,0.0,0.0,51,0.00,,---,0.00,VWS V14.01,2013-01-21 07:58:00,
2013-01-21 01:03:00,25.3,10.2,29.93,WNW,297,0.0,0.0,52,0.00,,---,0.00,VWS V14.01,2013-01-21 08:03:00,
2013-01-21 01:08:00,25.3,10.2,29.93,West,268,0.0,0.0,52,0.00,,---,0.00,VWS V14.01,2013-01-21 08:08:00,
2013-01-21 01:13:00,25.7,10.5,29.93,West,264,3.1,3.6,52,0.00,,---,0.00,VWS V14.01,2013-01-21 08:13:00,
2013-01-21 01:18:00,27.1,11.0,29.91,WNW,303,5.4,5.4,50,0.00,,---,0.00,VWS V14.01,2013-01-21 08:18:00,
2013-01-21 01:23:00,27.9,10.3,29.91,WSW,237,4.0,6.3,47,0.00,,---,0.00,VWS V14.01,2013-01-21 08:23:00,
2013-01-21 01:28:00,28.9,10.3,29.91,WSW,239,2.7,3.1,45,0.00,,---,0.00,VWS V14.01,2013-01-21 08:28:00,
2013-01-21 01:33:00,29.3,10.1,29.91,WNW,299,0.0,3.1,44,0.00,,---,0.00,VWS V14.01,2013-01-21 08:33:00,
2013-01-21 01:38:00,28.9,9.3,29.91,WNW,285,0.0,3.1,43,0.00,,---,0.00,VWS V14.01,2013-01-21 08:38:00,
2013-01-21 01:43:00,28.8,9.1,29.91,WSW,255,0.0,0.0,43,0.00,,---,0.00,VWS V14.01,2013-01-21 08:43:00,
2013-01-21 01:48:00,28.6,8.9,29.91,WSW,255,0.0,3.6,43,0.00,,---,0.00,VWS V14.01,2013-01-21 08:48:00,
2013-01-21 01:53:00,28.8,9.1,29.91,WSW,255,0.0,0.0,43,0.00,,---,0.00,VWS V14.01,2013-01-21 08:53:00,
2013-01-21 01:58:00,28.8,9.1,29.91,WSW,255,0.0,0.0,43,0.00,,---,0.00,VWS V14.01,2013-01-21 08:58:00,
2013-01-21 02:03:00,28.8,9.1,29.91,WSW,255,0.0,0.0,43,0.00,,---,0.00,VWS V14.01,2013-01-21 09:03:00,
2013-01-21 02:08:00,28.9,9.3,29.91,WSW,240,0.0,2.7,43,0.00,,---,0.00,VWS V14.01,2013-01-21 09:08:00,
2013-01-21 02:13:00,28.9,9.3,29.91,WSW,240,0.0,0.0,43,0.00,,---,0.00,VWS V14.01,2013-01-21 09:13:00,
2013-01-21 02:18:00,29.5,9.2,29.91,SW,226,0.0,0.0,42,0.00,,---,0.00,VWS V14.01,2013-01-21 09:18:00,
2013-01-21 02:23:00,29.1,8.9,29.91,WSW,237,0.0,0.0,42,0.00,,---,0.00,VWS V14.01,2013-01-21 09:23:00,
2013-01-21 02:28:00,28.9,8.7,29.91,WNW,288,3.6,3.6,42,0.00,,---,0.00,VWS V14.01,2013-01-21 09:28:00,
2013-01-21 02:33:00,29.8,9.6,29.91,WNW,288,0.0,0.0,42,0.00,,---,0.00,VWS V14.01,2013-01-21 09:33:00,
2013-01-21 02:38:00,29.7,9.4,29.91,WNW,288,0.0,0.0,42,0.00,,---,0.00,VWS V14.01,2013-01-21 09:38:00,
2013-01-21 02:43:00,29.1,8.9,29.91,WNW,288,0.0,0.0,42,0.00,,---,0.00,VWS V14.01,2013-01-21 09:43:00,
2013-01-21 02:48:00,28.6,8.4,29.91,WNW,288,0.0,0.0,42,0.00,,---,0.00,VWS V14.01,2013-01-21 09:48:00,
2013-01-21 02:53:00,28.8,8.6,29.91,West,273,0.0,0.0,42,0.00,,---,0.00,VWS V14.01,2013-01-21 09:53:00,
2013-01-21 02:58:00,29.3,9.1,29.91,WSW,252,0.0,0.0,42,0.00,,---,0.00,VWS V14.01,2013-01-21 09:58:00,
2013-01-21 03:03:00,30.4,9.5,29.91,West,277,0.0,0.0,41,0.00,,---,0.00,VWS V14.01,2013-01-21 10:03:00,
2013-01-21 03:08:00,30.7,9.8,29.91,West,277,0.0,0.0,41,0.00,,---,0.00,VWS V14.01,2013-01-21 10:08:00,
2013-01-21 03:13:00,31.3,10.3,29.91,SW,235,0.0,0.0,41,0.00,,---,0.00,VWS V14.01,2013-01-21 10:13:00,
2013-01-21 03:18:00,32.2,11.1,29.93,SW,235,0.0,0.0,41,0.00,,---,0.00,VWS V14.01,2013-01-21 10:18:00,
2013-01-21 03:23:00,32.4,10.8,29.93,WNW,295,0.0,0.0,40,0.00,,---,0.00,VWS V14.01,2013-01-21 10:23:00,
2013-01-21 03:28:00,32.2,10.6,29.93,West,276,0.0,0.0,40,0.00,,---,0.00,VWS V14.01,2013-01-21 10:28:00,
2013-01-21 03:33:00,32.2,10.6,29.93,West,274,0.0,0.0,40,0.00,,---,0.00,VWS V14.01,2013-01-21 10:33:00,
2013-01-21 03:38:00,32.5,10.4,29.93,SW,219,0.0,0.0,39,0.00,,---,0.00,VWS V14.01,2013-01-21 10:38:00,
2013-01-21 03:43:00,32.7,10.5,29.93,SW,219,0.0,0.0,39,0.00,,---,0.00,VWS V14.01,2013-01-21 10:43:00,
2013-01-21 03:48:00,32.7,9.9,29.91,SW,227,0.0,0.0,38,0.00,,---,0.00,VWS V14.01,2013-01-21 10:48:00,
2013-01-21 03:53:00,32.7,9.9,29.91,SW,227,0.0,0.0,38,0.00,,---,0.00,VWS V14.01,2013-01-21 10:53:00,
2013-01-21 03:58:00,32.5,9.8,29.91,SW,227,0.0,0.0,38,0.00,,---,0.00,VWS V14.01,2013-01-21 10:58:00,
2013-01-21 04:03:00,32.9,10.7,29.91,SW,227,0.0,0.0,39,0.00,,---,0.00,VWS V14.01,2013-01-21 11:03:00,
2013-01-21 04:08:00,32.7,9.9,29.91,SW,215,0.0,0.0,38,0.00,,---,0.00,VWS V14.01,2013-01-21 11:08:00,
2013-01-21 04:13:00,32.9,10.1,29.91,SSW,213,2.7,2.7,38,0.00,,---,0.00,VWS V14.01,2013-01-21 11:13:00,
2013-01-21 04:18:00,33.3,10.4,29.91,SSW,213,0.0,0.0,38,0.00,,---,0.00,VWS V14.01,2013-01-21 11:18:00,
2013-01-21 04:23:00,33.1,9.7,29.91,SSW,213,0.0,0.0,37,0.00,,---,0.00,VWS V14.01,2013-01-21 11:23:00,
2013-01-21 04:28:00,33.1,9.7,29.91,SSW,212,0.0,0.0,37,0.00,,---,0.00,VWS V14.01,2013-01-21 11:28:00,
2013-01-21 04:33:00,33.4,10.0,29.91,SSW,212,0.0,0.0,37,0.00,,---,0.00,VWS V14.01,2013-01-21 11:33:00,
2013-01-21 04:38:00,33.1,9.7,29.91,SSW,212,0.0,0.0,37,0.00,,---,0.00,VWS V14.01,2013-01-21 11:38:00,
2013-01-21 04:43:00,32.4,9.0,29.91,SSW,212,0.0,0.0,37,0.00,,---,0.00,VWS V14.01,2013-01-21 11:43:00,
2013-01-21 04:48:00,33.1,9.7,29.91,SSW,212,0.0,0.0,37,0.00,,---,0.00,VWS V14.01,2013-01-21 11:48:00,
2013-01-21 04:53:00,33.1,9.7,29.91,SSW,211,0.0,0.0,37,0.00,,---,0.00,VWS V14.01,2013-01-21 11:53:00,
2013-01-21 04:58:00,32.5,9.2,29.91,SSW,211,0.0,0.0,37,0.00,,---,0.00,VWS V14.01,2013-01-21 11:58:00,
2013-01-21 05:03:00,32.5,9.2,29.91,SSW,211,0.0,0.0,37,0.00,,---,0.00,VWS V14.01,2013-01-21 12:03:00,
2013-01-21 05:08:00,32.5,9.2,29.91,SSW,211,0.0,0.0,37,0.00,,---,0.00,VWS V14.01,2013-01-21 12:08:00,
2013-01-21 05:13:00,31.6,8.4,29.91,SSW,211,0.0,0.0,37,0.00,,---,0.00,VWS V14.01,2013-01-21 12:13:00,
2013-01-21 05:18:00,31.1,8.5,29.91,SSW,211,0.0,0.0,38,0.00,,---,0.00,VWS V14.01,2013-01-21 12:18:00,
2013-01-21 05:23:00,31.3,8.6,29.91,SSW,212,0.0,0.0,38,0.00,,---,0.00,VWS V14.01,2013-01-21 12:23:00,
2013-01-21 05:28:00,30.4,7.8,29.91,SW,228,0.0,0.0,38,0.00,,---,0.00,VWS V14.01,2013-01-21 12:28:00,
2013-01-21 05:33:00,29.7,7.8,29.91,West,268,0.0,0.0,39,0.00,,---,0.00,VWS V14.01,2013-01-21 12:33:00,
2013-01-21 05:38:00,29.7,8.3,29.91,WNW,296,0.0,0.0,40,0.00,,---,0.00,VWS V14.01,2013-01-21 12:38:00,
2013-01-21 05:43:00,31.3,9.8,29.91,WSW,250,2.7,3.6,40,0.00,,---,0.00,VWS V14.01,2013-01-21 12:43:00,
2013-01-21 05:48:00,31.5,9.4,29.91,WSW,250,3.1,3.1,39,0.00,,---,0.00,VWS V14.01,2013-01-21 12:48:00,
2013-01-21 05:53:00,33.1,10.2,29.91,West,261,0.0,3.1,38,0.00,,---,0.00,VWS V14.01,2013-01-21 12:53:00,
2013-01-21 05:58:00,33.4,10.0,29.91,WNW,298,2.7,4.0,37,0.00,,---,0.00,VWS V14.01,2013-01-21 12:58:00,
2013-01-21 06:03:00,33.3,9.8,29.91,WSW,250,4.0,5.4,37,0.00,,---,0.00,VWS V14.01,2013-01-21 13:03:00,
2013-01-21 06:08:00,33.3,9.8,29.91,West,266,0.0,2.7,37,0.00,,---,0.00,VWS V14.01,2013-01-21 13:08:00,
2013-01-21 06:13:00,33.1,9.7,29.91,West,268,3.6,4.0,37,0.00,,---,0.00,VWS V14.01,2013-01-21 13:13:00,
2013-01-21 06:18:00,32.7,9.3,29.91,West,275,0.0,0.0,37,0.00,,---,0.00,VWS V14.01,2013-01-21 13:18:00,
2013-01-21 06:23:00,33.1,9.1,29.91,SW,236,2.7,2.7,36,0.00,,---,0.00,VWS V14.01,2013-01-21 13:23:00,
2013-01-21 06:28:00,33.6,9.5,29.91,SW,236,0.0,0.0,36,0.00,,---,0.00,VWS V14.01,2013-01-21 13:28:00,
2013-01-21 06:33:00,34.0,9.9,29.91,SW,236,0.0,0.0,36,0.00,,---,0.00,VWS V14.01,2013-01-21 13:33:00,
2013-01-21 06:38:00,33.1,9.1,29.91,WSW,237,0.0,0.0,36,0.00,,---,0.00,VWS V14.01,2013-01-21 13:38:00,
2013-01-21 06:43:00,31.5,8.2,29.91,WSW,237,0.0,0.0,37,0.00,,---,0.00,VWS V14.01,2013-01-21 13:43:00,
2013-01-21 06:48:00,30.2,7.7,29.91,WSW,237,0.0,0.0,38,0.00,,---,0.00,VWS V14.01,2013-01-21 13:48:00,
2013-01-21 06:53:00,29.5,7.0,29.91,WSW,239,0.0,0.0,38,0.00,,---,0.00,VWS V14.01,2013-01-21 13:53:00,
2013-01-21 06:58:00,28.8,7.5,29.91,ENE,69,0.0,0.0,40,0.00,,---,0.00,VWS V14.01,2013-01-21 13:58:00,
2013-01-21 07:03:00,28.4,7.7,29.91,ENE,69,0.0,0.0,41,0.00,,---,0.00,VWS V14.01,2013-01-21 14:03:00,
2013-01-21 07:08:00,27.9,7.2,29.91,ENE,69,0.0,0.0,41,0.00,,---,0.00,VWS V14.01,2013-01-21 14:08:00,
2013-01-21 07:13:00,27.3,6.7,29.91,ENE,69,0.0,0.0,41,0.00,,---,0.00,VWS V14.01,2013-01-21 14:13:00,
2013-01-21 07:18:00,26.8,6.8,29.91,ENE,69,0.0,0.0,42,0.00,,---,0.00,VWS V14.01,2013-01-21 14:18:00,
2013-01-21 07:23:00,26.4,7.0,29.91,ENE,69,0.0,0.0,43,0.00,,---,0.00,VWS V14.01,2013-01-21 14:23:00,
2013-01-21 07:28:00,26.4,7.5,29.91,WNW,289,0.0,0.0,44,0.00,,---,0.00,VWS V14.01,2013-01-21 14:28:00,
2013-01-21 07:33:00,26.2,7.3,29.91,WNW,289,0.0,0.0,44,0.00,,---,0.00,VWS V14.01,2013-01-21 14:33:00,
2013-01-21 07:38:00,25.7,7.3,29.91,West,278,0.0,0.0,45,0.00,,---,0.00,VWS V14.01,2013-01-21 14:38:00,
2013-01-21 07:43:00,26.2,7.8,29.91,West,278,0.0,0.0,45,0.00,,---,0.00,VWS V14.01,2013-01-21 14:43:00,
2013-01-21 07:48:00,26.4,8.5,29.91,West,281,0.0,0.0,46,0.00,,---,0.00,VWS V14.01,2013-01-21 14:48:00,
2013-01-21 07:53:00,26.4,8.5,29.91,West,281,0.0,0.0,46,0.00,,---,0.00,VWS V14.01,2013-01-21 14:53:00,
2013-01-21 07:58:00,27.1,9.1,29.91,NW,316,0.0,0.0,46,0.00,,---,0.00,VWS V14.01,2013-01-21 14:58:00,
2013-01-21 08:03:00,27.1,9.6,29.91,NW,312,0.0,0.0,47,0.00,,---,0.00,VWS V14.01,2013-01-21 15:03:00,
2013-01-21 08:08:00,27.7,9.1,29.91,WNW,302,0.0,0.0,45,0.00,,---,0.00,VWS V14.01,2013-01-21 15:08:00,
2013-01-21 08:13:00,28.2,9.6,29.91,WSW,247,2.2,2.2,45,0.00,,---,0.00,VWS V14.01,2013-01-21 15:13:00,
2013-01-21 08:18:00,27.9,9.3,29.91,SW,224,0.0,0.0,45,0.00,,---,0.00,VWS V14.01,2013-01-21 15:18:00,
2013-01-21 08:23:00,27.7,9.1,29.91,SW,224,0.0,0.0,45,0.00,,---,0.00,VWS V14.01,2013-01-21 15:23:00,
2013-01-21 08:28:00,27.7,9.6,29.91,WSW,257,0.0,0.0,46,0.00,,---,0.00,VWS V14.01,2013-01-21 15:28:00,
2013-01-21 08:33:00,27.5,9.9,29.88,West,262,0.0,0.0,47,0.00,,---,0.00,VWS V14.01,2013-01-21 15:33:00,
2013-01-21 08:38:00,27.9,10.3,29.88,WNW,303,0.0,0.0,47,0.00,,---,0.00,VWS V14.01,2013-01-21 15:38:00,
2013-01-21 08:43:00,28.0,9.9,29.88,SSE,161,0.0,0.0,46,0.00,,---,0.00,VWS V14.01,2013-01-21 15:43:00,
2013-01-21 08:48:00,28.2,9.6,29.91,SSW,210,0.0,0.0,45,0.00,,---,0.00,VWS V14.01,2013-01-21 15:48:00,
2013-01-21 08:53:00,29.1,10.4,29.91,WSW,254,0.0,0.0,45,0.00,,---,0.00,VWS V14.01,2013-01-21 15:53:00,
2013-01-21 08:58:00,30.0,10.8,29.91,NNW,327,0.0,0.0,44,0.00,,---,0.00,VWS V14.01,2013-01-21 15:58:00,
2013-01-21 09:03:00,30.4,10.6,29.88,NNW,327,0.0,0.0,43,0.00,,---,0.00,VWS V14.01,2013-01-21 16:03:00,
2013-01-21 09:08:00,30.7,10.9,29.88,NNW,327,0.0,0.0,43,0.00,,---,0.00,VWS V14.01,2013-01-21 16:08:00,
2013-01-21 09:13:00,31.1,11.2,29.88,NNW,327,0.0,0.0,43,0.00,,---,0.00,VWS V14.01,2013-01-21 16:13:00,
2013-01-21 09:18:00,32.4,11.9,29.91,SSW,207,0.0,0.0,42,0.00,,---,0.00,VWS V14.01,2013-01-21 16:18:00,
2013-01-21 09:23:00,33.4,12.3,29.91,SE,146,0.0,2.7,41,0.00,,---,0.00,VWS V14.01,2013-01-21 16:23:00,
2013-01-21 09:28:00,33.8,12.6,29.91,SE,146,0.0,0.0,41,0.00,,---,0.00,VWS V14.01,2013-01-21 16:28:00,
2013-01-21 09:33:00,34.7,12.9,29.91,SE,146,0.0,0.0,40,0.00,,---,0.00,VWS V14.01,2013-01-21 16:33:00,
2013-01-21 09:38:00,35.8,13.8,29.91,SSE,147,0.0,0.0,40,0.00,,---,0.00,VWS V14.01,2013-01-21 16:38:00,
2013-01-21 09:43:00,36.0,14.0,29.91,SE,146,0.0,0.0,40,0.00,,---,0.00,VWS V14.01,2013-01-21 16:43:00,
2013-01-21 09:48:00,37.2,14.6,29.91,SE,146,0.0,0.0,39,0.00,,---,0.00,VWS V14.01,2013-01-21 16:48:00,
2013-01-21 09:53:00,37.9,14.6,29.91,SE,146,0.0,0.0,38,0.00,,---,0.00,VWS V14.01,2013-01-21 16:53:00,
2013-01-21 09:58:00,38.5,13.9,29.91,SE,146,0.0,0.0,36,0.00,,---,0.00,VWS V14.01,2013-01-21 16:58:00,
2013-01-21 10:03:00,38.5,13.9,29.91,SE,146,0.0,0.0,36,0.00,,---,0.00,VWS V14.01,2013-01-21 17:03:00,
2013-01-21 10:08:00,39.4,13.4,29.91,SE,146,0.0,0.0,34,0.00,,---,0.00,VWS V14.01,2013-01-21 17:08:00,
2013-01-21 10:13:00,40.3,14.2,29.91,SSE,153,0.0,0.0,34,0.00,,---,0.00,VWS V14.01,2013-01-21 17:13:00,
2013-01-21 10:18:00,40.1,14.0,29.91,SSE,154,0.0,0.0,34,0.00,,---,0.00,VWS V14.01,2013-01-21 17:18:00,
2013-01-21 10:23:00,40.8,14.6,29.91,SSE,154,0.0,0.0,34,0.00,,---,0.00,VWS V14.01,2013-01-21 17:23:00,
2013-01-21 10:28:00,41.7,15.4,29.91,South,169,0.0,0.0,34,0.00,,---,0.00,VWS V14.01,2013-01-21 17:28:00,
2013-01-21 10:33:00,43.2,14.6,29.91,SSE,155,0.0,0.0,31,0.00,,---,0.00,VWS V14.01,2013-01-21 17:33:00,
2013-01-21 10:38:00,43.7,15.1,29.91,WSW,240,0.0,0.0,31,0.00,,---,0.00,VWS V14.01,2013-01-21 17:38:00,
2013-01-21 10:43:00,43.7,15.1,29.91,WSW,241,0.0,0.0,31,0.00,,---,0.00,VWS V14.01,2013-01-21 17:43:00,
2013-01-21 10:48:00,44.2,14.8,29.91,WSW,242,0.0,0.0,30,0.00,,---,0.00,VWS V14.01,2013-01-21 17:48:00,
2013-01-21 10:53:00,45.0,15.4,29.91,North,3,0.0,0.0,30,0.00,,---,0.00,VWS V14.01,2013-01-21 17:53:00,
2013-01-21 10:58:00,45.9,16.2,29.91,ENE,62,4.9,4.9,30,0.00,,---,0.00,VWS V14.01,2013-01-21 17:58:00,
2013-01-21 11:03:00,46.8,16.2,29.91,ENE,74,0.0,0.0,29,0.00,,---,0.00,VWS V14.01,2013-01-21 18:03:00,
2013-01-21 11:08:00,48.0,17.3,29.91,ENE,70,0.0,0.0,29,0.00,,---,0.00,VWS V14.01,2013-01-21 18:08:00,
2013-01-21 11:13:00,48.6,17.8,29.91,ENE,68,0.0,2.7,29,0.00,,---,0.00,VWS V14.01,2013-01-21 18:13:00,
2013-01-21 11:18:00,48.2,17.5,29.91,NNE,23,3.6,3.6,29,0.00,,---,0.00,VWS V14.01,2013-01-21 18:18:00,
2013-01-21 11:23:00,46.9,17.1,29.91,NNE,31,3.1,3.1,30,0.00,,---,0.00,VWS V14.01,2013-01-21 18:23:00,
2013-01-21 11:28:00,46.8,17.0,29.91,NE,51,0.0,3.1,30,0.00,,---,0.00,VWS V14.01,2013-01-21 18:28:00,
2013-01-21 11:33:00,46.8,16.2,29.88,NE,49,0.0,0.0,29,0.00,,---,0.00,VWS V14.01,2013-01-21 18:33:00,
2013-01-21 11:38:00,47.5,16.0,29.88,WSW,245,6.7,6.7,28,0.00,,---,0.00,VWS V14.01,2013-01-21 18:38:00,
2013-01-21 11:43:00,48.0,15.6,29.88,NW,308,8.1,8.1,27,0.00,,---,0.00,VWS V14.01,2013-01-21 18:43:00,
2013-01-21 11:48:00,48.2,14.9,29.88,WNW,302,3.1,6.3,26,0.00,,---,0.00,VWS V14.01,2013-01-21 18:48:00,
2013-01-21 11:53:00,48.4,13.3,29.88,WNW,302,3.6,4.9,24,0.00,,---,0.00,VWS V14.01,2013-01-21 18:53:00,
2013-01-21 11:58:00,48.4,13.3,29.88,NW,317,8.3,8.3,24,0.00,,---,0.00,VWS V14.01,2013-01-21 18:58:00,
2013-01-21 12:03:00,48.6,13.4,29.88,WNW,284,3.6,3.6,24,0.00,,---,0.00,VWS V14.01,2013-01-21 19:03:00,
2013-01-21 12:08:00,48.7,13.6,29.88,NW,313,6.3,6.3,24,0.00,,---,0.00,VWS V14.01,2013-01-21 19:08:00,
2013-01-21 12:13:00,48.7,10.6,29.88,WNW,289,5.8,5.8,21,0.00,,---,0.00,VWS V14.01,2013-01-21 19:13:00,
2013-01-21 12:18:00,49.1,13.9,29.88,NW,316,4.0,8.1,24,0.00,,---,0.00,VWS V14.01,2013-01-21 19:18:00,
2013-01-21 12:23:00,49.3,11.0,29.88,WNW,300,6.3,8.1,21,0.00,,---,0.00,VWS V14.01,2013-01-21 19:23:00,
2013-01-21 12:28:00,49.5,11.2,29.88,WSW,248,6.3,6.3,21,0.00,,---,0.00,VWS V14.01,2013-01-21 19:28:00,
2013-01-21 12:33:00,49.6,11.3,29.88,West,277,6.3,10.1,21,0.00,,---,0.00,VWS V14.01,2013-01-21 19:33:00,
2013-01-21 12:38:00,49.8,11.5,29.88,NW,323,7.6,7.6,21,0.00,,---,0.00,VWS V14.01,2013-01-21 19:38:00,
2013-01-21 12:43:00,49.8,11.5,29.88,WNW,301,4.0,4.0,21,0.00,,---,0.00,VWS V14.01,2013-01-21 19:43:00,
2013-01-21 12:48:00,49.6,11.3,29.88,WNW,288,8.1,8.1,21,0.00,,---,0.00,VWS V14.01,2013-01-21 19:48:00,
2013-01-21 12:53:00,49.3,11.0,29.88,West,278,4.0,4.0,21,0.00,,---,0.00,VWS V14.01,2013-01-21 19:53:00,
2013-01-21 12:58:00,49.3,11.0,29.88,WNW,300,4.0,4.0,21,0.00,,---,0.00,VWS V14.01,2013-01-21 19:58:00,
2013-01-21 13:03:00,49.5,11.2,29.88,SW,219,0.0,4.9,21,0.00,,---,0.00,VWS V14.01,2013-01-21 20:03:00,
2013-01-21 13:08:00,50.2,11.8,29.88,SSW,200,0.0,3.6,21,0.00,,---,0.00,VWS V14.01,2013-01-21 20:08:00,
2013-01-21 13:13:00,50.2,11.8,29.88,SSW,201,0.0,0.0,21,0.00,,---,0.00,VWS V14.01,2013-01-21 20:13:00,
2013-01-21 13:18:00,50.2,16.6,29.85,NE,37,3.1,4.0,26,0.00,,---,0.00,VWS V14.01,2013-01-21 20:18:00,
2013-01-21 13:23:00,49.6,17.0,29.85,NE,53,0.0,0.0,27,0.00,,---,0.00,VWS V14.01,2013-01-21 20:23:00,
2013-01-21 13:28:00,48.7,16.3,29.85,NE,53,0.0,0.0,27,0.00,,---,0.00,VWS V14.01,2013-01-21 20:28:00,
2013-01-21 13:33:00,48.4,16.0,29.85,NE,53,0.0,0.0,27,0.00,,---,0.00,VWS V14.01,2013-01-21 20:33:00,
2013-01-21 13:38:00,48.0,16.5,29.85,NE,53,0.0,0.0,28,0.00,,---,0.00,VWS V14.01,2013-01-21 20:38:00,
2013-01-21 13:43:00,48.0,16.5,29.85,NE,50,2.2,3.1,28,0.00,,---,0.00,VWS V14.01,2013-01-21 20:43:00,
2013-01-21 13:48:00,47.7,17.0,29.85,ENE,68,5.4,5.4,29,0.00,,---,0.00,VWS V14.01,2013-01-21 20:48:00,
2013-01-21 13:53:00,47.7,17.8,29.85,East,81,2.2,5.8,30,0.00,,---,0.00,VWS V14.01,2013-01-21 20:53:00,
2013-01-21 13:58:00,46.8,16.2,29.85,ESE,109,0.0,0.0,29,0.00,,---,0.00,VWS V14.01,2013-01-21 20:58:00,
2013-01-21 14:03:00,47.8,17.1,29.85,East,97,2.7,3.6,29,0.00,,---,0.00,VWS V14.01,2013-01-21 21:03:00,
2013-01-21 14:08:00,48.4,17.6,29.85,ENE,68,0.0,0.0,29,0.00,,---,0.00,VWS V14.01,2013-01-21 21:08:00,
2013-01-21 14:13:00,49.5,17.7,29.85,North,357,0.0,0.0,28,0.00,,---,0.00,VWS V14.01,2013-01-21 21:13:00,
2013-01-21 14:18:00,50.4,14.9,29.82,WNW,294,2.7,4.0,24,0.00,,---,0.00,VWS V14.01,2013-01-21 21:18:00,
2013-01-21 14:23:00,51.1,15.6,29.82,WSW,253,4.9,4.9,24,0.00,,---,0.00,VWS V14.01,2013-01-21 21:23:00,
2013-01-21 14:28:00,51.4,12.8,29.82,NW,307,2.7,3.6,21,0.00,,---,0.00,VWS V14.01,2013-01-21 21:28:00,
2013-01-21 14:33:00,51.4,12.8,29.82,WNW,297,2.2,6.3,21,0.00,,---,0.00,VWS V14.01,2013-01-21 21:33:00,
2013-01-21 14:38:00,51.6,13.0,29.82,WNW,301,3.1,3.1,21,0.00,,---,0.00,VWS V14.01,2013-01-21 21:38:00,
2013-01-21 14:43:00,51.1,17.4,29.82,SSW,192,0.0,3.1,26,0.00,,---,0.00,VWS V14.01,2013-01-21 21:43:00,
2013-01-21 14:48:00,51.3,15.7,29.82,South,179,0.0,0.0,24,0.00,,---,0.00,VWS V14.01,2013-01-21 21:48:00,
2013-01-21 14:53:00,51.6,13.0,29.82,WSW,257,0.0,0.0,21,0.00,,---,0.00,VWS V14.01,2013-01-21 21:53:00,
2013-01-21 14:58:00,52.0,18.2,29.82,SSE,150,0.0,0.0,26,0.00,,---,0.00,VWS V14.01,2013-01-21 21:58:00,
2013-01-21 15:03:00,52.0,18.2,29.82,South,181,0.0,0.0,26,0.00,,---,0.00,VWS V14.01,2013-01-21 22:03:00,
2013-01-21 15:08:00,52.3,18.5,29.82,ENE,64,3.6,3.6,26,0.00,,---,0.00,VWS V14.01,2013-01-21 22:08:00,
2013-01-21 15:13:00,52.0,18.2,29.82,NE,40,0.0,0.0,26,0.00,,---,0.00,VWS V14.01,2013-01-21 22:13:00,
2013-01-21 15:18:00,51.4,17.7,29.82,North,353,0.0,0.0,26,0.00,,---,0.00,VWS V14.01,2013-01-21 22:18:00,
2013-01-21 15:23:00,51.1,18.3,29.82,NE,50,4.0,4.0,27,0.00,,---,0.00,VWS V14.01,2013-01-21 22:23:00,
2013-01-21 15:28:00,51.1,18.3,29.82,NE,47,0.0,0.0,27,0.00,,---,0.00,VWS V14.01,2013-01-21 22:28:00,
2013-01-21 15:33:00,51.4,18.6,29.82,NE,48,0.0,0.0,27,0.00,,---,0.00,VWS V14.01,2013-01-21 22:33:00,
2013-01-21 15:38:00,51.8,18.0,29.82,NE,48,0.0,0.0,26,0.00,,---,0.00,VWS V14.01,2013-01-21 22:38:00,
2013-01-21 15:43:00,51.8,18.9,29.82,NE,37,0.0,0.0,27,0.00,,---,0.00,VWS V14.01,2013-01-21 22:43:00,
2013-01-21 15:48:00,52.0,19.1,29.82,NE,37,0.0,0.0,27,0.00,,---,0.00,VWS V14.01,2013-01-21 22:48:00,
2013-01-21 15:53:00,51.4,18.6,29.82,ENE,78,3.1,3.6,27,0.00,,---,0.00,VWS V14.01,2013-01-21 22:53:00,
2013-01-21 15:58:00,49.8,18.0,29.82,NE,46,3.1,3.1,28,0.00,,---,0.00,VWS V14.01,2013-01-21 22:58:00,
2013-01-21 16:03:00,48.7,17.1,29.82,NNE,21,3.6,4.9,28,0.00,,---,0.00,VWS V14.01,2013-01-21 23:03:00,
2013-01-21 16:08:00,47.1,16.5,29.82,SE,135,4.0,4.0,29,0.00,,---,0.00,VWS V14.01,2013-01-21 23:08:00,
2013-01-21 16:13:00,45.1,14.8,29.82,NE,49,0.0,0.0,29,0.00,,---,0.00,VWS V14.01,2013-01-21 23:13:00,
2013-01-21 16:18:00,44.2,14.8,29.82,ESE,106,2.7,2.7,30,0.00,,---,0.00,VWS V14.01,2013-01-21 23:18:00,
2013-01-21 16:23:00,42.3,14.5,29.82,ESE,120,0.0,0.0,32,0.00,,---,0.00,VWS V14.01,2013-01-21 23:23:00,
2013-01-21 16:28:00,39.7,13.0,29.82,SE,128,4.9,4.9,33,0.00,,---,0.00,VWS V14.01,2013-01-21 23:28:00,
2013-01-21 16:33:00,39.4,14.0,29.82,ENE,68,2.2,2.2,35,0.00,,---,0.00,VWS V14.01,2013-01-21 23:33:00,
2013-01-21 16:38:00,39.0,14.3,29.82,ENE,70,0.0,0.0,36,0.00,,---,0.00,VWS V14.01,2013-01-21 23:38:00,
2013-01-21 16:43:00,38.5,14.5,29.82,SE,129,0.0,0.0,37,0.00,,---,0.00,VWS V14.01,2013-01-21 23:43:00,
2013-01-21 16:48:00,37.8,13.8,29.82,SE,135,0.0,0.0,37,0.00,,---,0.00,VWS V14.01,2013-01-21 23:48:00,
2013-01-21 16:53:00,37.2,14.6,29.82,ESE,104,0.0,0.0,39,0.00,,---,0.00,VWS V14.01,2013-01-21 23:53:00,
2013-01-21 16:58:00,36.9,14.2,29.82,East,99,0.0,0.0,39,0.00,,---,0.00,VWS V14.01,2013-01-21 23:58:00,
2013-01-21 17:03:00,36.7,14.1,29.82,East,99,0.0,0.0,39,0.00,,---,0.00,VWS V14.01,2013-01-22 00:03:00,
2013-01-21 17:08:00,36.5,14.5,29.82,East,96,0.0,0.0,40,0.00,,---,0.00,VWS V14.01,2013-01-22 00:08:00,
2013-01-21 17:13:00,36.1,13.6,29.82,East,97,0.0,0.0,39,0.00,,---,0.00,VWS V14.01,2013-01-22 00:13:00,
2013-01-21 17:18:00,35.6,13.1,29.82,ESE,117,0.0,0.0,39,0.00,,---,0.00,VWS V14.01,2013-01-22 00:18:00,
2013-01-21 17:23:00,35.6,13.1,29.82,ESE,102,0.0,0.0,39,0.00,,---,0.00,VWS V14.01,2013-01-22 00:23:00,
2013-01-21 17:28:00,35.1,13.2,29.82,East,99,0.0,0.0,40,0.00,,---,0.00,VWS V14.01,2013-01-22 00:28:00,
2013-01-21 17:33:00,34.5,13.3,29.82,NW,312,3.1,3.1,41,0.00,,---,0.00,VWS V14.01,2013-01-22 00:33:00,
2013-01-21 17:38:00,34.2,13.5,29.82,West,267,3.6,3.6,42,0.00,,---,0.00,VWS V14.01,2013-01-22 00:38:00,
2013-01-21 17:43:00,33.8,13.7,29.82,West,267,0.0,0.0,43,0.00,,---,0.00,VWS V14.01,2013-01-22 00:43:00,
2013-01-21 17:48:00,33.4,13.4,29.82,West,267,0.0,0.0,43,0.00,,---,0.00,VWS V14.01,2013-01-22 00:48:00,
2013-01-21 17:53:00,33.1,13.6,29.82,West,267,0.0,0.0,44,0.00,,---,0.00,VWS V14.01,2013-01-22 00:53:00,
2013-01-21 17:58:00,32.7,14.7,29.82,West,267,0.0,0.0,47,0.00,,---,0.00,VWS V14.01,2013-01-22 00:58:00,
2013-01-21 18:03:00,32.2,14.7,29.82,West,267,0.0,0.0,48,0.00,,---,0.00,VWS V14.01,2013-01-22 01:03:00,
2013-01-21 18:08:00,32.2,15.2,29.82,WNW,298,0.0,0.0,49,0.00,,---,0.00,VWS V14.01,2013-01-22 01:08:00,
2013-01-21 18:13:00,32.2,14.7,29.82,South,182,0.0,0.0,48,0.00,,---,0.00,VWS V14.01,2013-01-22 01:13:00,
2013-01-21 18:18:00,32.2,14.2,29.82,SSW,200,0.0,0.0,47,0.00,,---,0.00,VWS V14.01,2013-01-22 01:18:00,
2013-01-21 18:23:00,31.8,14.9,29.82,SSW,200,0.0,0.0,49,0.00,,---,0.00,VWS V14.01,2013-01-22 01:23:00,
2013-01-21 18:28:00,31.3,13.9,29.82,SSE,156,0.0,0.0,48,0.00,,---,0.00,VWS V14.01,2013-01-22 01:28:00,
2013-01-21 18:33:00,30.9,14.0,29.82,SSE,156,0.0,0.0,49,0.00,,---,0.00,VWS V14.01,2013-01-22 01:33:00,
2013-01-21 18:38:00,30.6,14.1,29.82,SSE,157,0.0,0.0,50,0.00,,---,0.00,VWS V14.01,2013-01-22 01:38:00,
2013-01-21 18:43:00,30.2,14.3,29.82,WNW,294,0.0,0.0,51,0.00,,---,0.00,VWS V14.01,2013-01-22 01:43:00,
2013-01-21 18:48:00,30.2,14.3,29.82,WNW,295,0.0,0.0,51,0.00,,---,0.00,VWS V14.01,2013-01-22 01:48:00,
2013-01-21 18:53:00,29.8,14.4,29.82,South,190,0.0,3.1,52,0.00,,---,0.00,VWS V14.01,2013-01-22 01:53:00,
2013-01-21 18:58:00,29.7,14.2,29.82,SSW,193,0.0,0.0,52,0.00,,---,0.00,VWS V14.01,2013-01-22 01:58:00,
2013-01-21 19:03:00,29.5,14.0,29.82,WSW,249,0.0,0.0,52,0.00,,---,0.00,VWS V14.01,2013-01-22 02:03:00,
2013-01-21 19:08:00,29.5,14.0,29.82,WSW,249,0.0,0.0,52,0.00,,---,0.00,VWS V14.01,2013-01-22 02:08:00,
2013-01-21 19:13:00,30.2,14.3,29.82,WNW,300,4.9,4.9,51,0.00,,---,0.00,VWS V14.01,2013-01-22 02:13:00,
2013-01-21 19:18:00,30.7,13.9,29.82,SSW,193,0.0,2.2,49,0.00,,---,0.00,VWS V14.01,2013-01-22 02:18:00,
2013-01-21 19:23:00,30.7,13.4,29.82,West,268,0.0,0.0,48,0.00,,---,0.00,VWS V14.01,2013-01-22 02:23:00,
2013-01-21 19:28:00,30.7,12.9,29.82,West,277,0.0,0.0,47,0.00,,---,0.00,VWS V14.01,2013-01-22 02:28:00,
2013-01-21 19:33:00,30.6,12.7,29.82,SSW,205,0.0,0.0,47,0.00,,---,0.00,VWS V14.01,2013-01-22 02:33:00,
2013-01-21 19:38:00,30.6,12.3,29.82,WSW,243,0.0,0.0,46,0.00,,---,0.00,VWS V14.01,2013-01-22 02:38:00,
2013-01-21 19:43:00,30.4,12.6,29.82,WNW,302,0.0,0.0,47,0.00,,---,0.00,VWS V14.01,2013-01-22 02:43:00,
2013-01-21 19:48:00,30.9,12.6,29.82,WNW,295,0.0,0.0,46,0.00,,---,0.00,VWS V14.01,2013-01-22 02:48:00,
2013-01-21 19:53:00,30.7,12.4,29.82,WNW,287,0.0,0.0,46,0.00,,---,0.00,VWS V14.01,2013-01-22 02:53:00,
2013-01-21 19:58:00,30.4,11.6,29.82,SSE,164,0.0,0.0,45,0.00,,---,0.00,VWS V14.01,2013-01-22 02:58:00,
2013-01-21 20:03:00,30.2,11.4,29.82,WSW,252,2.7,2.7,45,0.00,,---,0.00,VWS V14.01,2013-01-22 03:03:00,
2013-01-21 20:08:00,30.9,11.1,29.82,West,269,0.0,0.0,43,0.00,,---,0.00,VWS V14.01,2013-01-22 03:08:00,
2013-01-21 20:13:00,30.6,10.7,29.82,West,266,0.0,0.0,43,0.00,,---,0.00,VWS V14.01,2013-01-22 03:13:00,
2013-01-21 20:18:00,30.2,10.9,29.82,WNW,298,0.0,0.0,44,0.00,,---,0.00,VWS V14.01,2013-01-22 03:18:00,
2013-01-21 20:23:00,29.7,10.4,29.82,WNW,286,0.0,3.6,44,0.00,,---,0.00,VWS V14.01,2013-01-22 03:23:00,
2013-01-21 20:28:00,30.0,10.2,29.82,WNW,286,0.0,0.0,43,0.00,,---,0.00,VWS V14.01,2013-01-22 03:28:00,
2013-01-21 20:33:00,29.5,9.2,29.82,WNW,284,0.0,0.0,42,0.00,,---,0.00,VWS V14.01,2013-01-22 03:33:00,
2013-01-21 20:38:00,29.5,9.8,29.82,SE,127,3.6,3.6,43,0.00,,---,0.00,VWS V14.01,2013-01-22 03:38:00,
2013-01-21 20:43:00,29.7,9.9,29.82,SE,129,0.0,0.0,43,0.00,,---,0.00,VWS V14.01,2013-01-22 03:43:00,
2013-01-21 20:48:00,29.8,9.6,29.82,SE,128,0.0,0.0,42,0.00,,---,0.00,VWS V14.01,2013-01-22 03:48:00,
2013-01-21 20:53:00,29.5,9.2,29.82,SE,133,0.0,0.0,42,0.00,,---,0.00,VWS V14.01,2013-01-22 03:53:00,
2013-01-21 20:58:00,29.5,9.2,29.82,SE,133,0.0,0.0,42,0.00,,---,0.00,VWS V14.01,2013-01-22 03:58:00,
2013-01-21 21:03:00,28.6,8.9,29.82,SE,133,0.0,0.0,43,0.00,,---,0.00,VWS V14.01,2013-01-22 04:03:00,
2013-01-21 21:08:00,28.2,8.6,29.82,WNW,294,2.7,3.6,43,0.00,,---,0.00,VWS V14.01,2013-01-22 04:08:00,
2013-01-21 21:13:00,28.2,8.6,29.82,West,281,0.0,0.0,43,0.00,,---,0.00,VWS V14.01,2013-01-22 04:13:00,
2013-01-21 21:18:00,28.0,8.4,29.82,West,265,0.0,0.0,43,0.00,,---,0.00,VWS V14.01,2013-01-22 04:18:00,
2013-01-21 21:23:00,27.9,8.3,29.82,WNW,284,0.0,0.0,43,0.00,,---,0.00,VWS V14.01,2013-01-22 04:23:00,
2013-01-21 21:28:00,27.9,8.3,29.82,West,261,0.0,0.0,43,0.00,,---,0.00,VWS V14.01,2013-01-22 04:28:00,
2013-01-21 21:33:00,27.9,8.3,29.85,SW,225,0.0,0.0,43,0.00,,---,0.00,VWS V14.01,2013-01-22 04:33:00,
2013-01-21 21:38:00,27.5,7.4,29.85,SW,224,0.0,0.0,42,0.00,,---,0.00,VWS V14.01,2013-01-22 04:38:00,
2013-01-21 21:43:00,27.5,7.9,29.85,WSW,238,0.0,0.0,43,0.00,,---,0.00,VWS V14.01,2013-01-22 04:43:00,
2013-01-21 21:48:00,27.1,7.6,29.85,West,268,0.0,0.0,43,0.00,,---,0.00,VWS V14.01,2013-01-22 04:48:00,
2013-01-21 21:53:00,27.0,7.5,29.85,West,268,0.0,0.0,43,0.00,,---,0.00,VWS V14.01,2013-01-22 04:53:00,
2013-01-21 21:58:00,26.6,7.6,29.85,East,81,0.0,0.0,44,0.00,,---,0.00,VWS V14.01,2013-01-22 04:58:00,
2013-01-21 22:00:00,26.4,7.5,29.85,East,95,0.0,0.0,44,0.00,,---,0.00,VWS V14.01,2013-01-22 05:00:00,
2013-01-21 22:05:00,26.6,7.6,29.82,NNW,333,0.0,3.1,44,0.00,,---,0.00,VWS V14.01,2013-01-22 05:05:00,
2013-01-21 22:10:00,27.0,8.0,29.82,East,91,4.5,4.5,44,0.00,,---,0.00,VWS V14.01,2013-01-22 05:10:00,
2013-01-21 22:15:00,28.0,8.9,29.82,NE,45,0.0,3.1,44,0.00,,---,0.00,VWS V14.01,2013-01-22 05:15:00,
2013-01-21 22:20:00,28.0,8.9,29.85,NE,45,0.0,0.0,44,0.00,,---,0.00,VWS V14.01,2013-01-22 05:20:00,
2013-01-21 22:25:00,28.0,8.4,29.85,North,10,0.0,0.0,43,0.00,,---,0.00,VWS V14.01,2013-01-22 05:25:00,
2013-01-21 22:30:00,27.7,8.6,29.85,WSW,242,0.0,2.2,44,0.00,,---,0.00,VWS V14.01,2013-01-22 05:30:00,
2013-01-21 22:35:00,27.5,8.5,29.85,WSW,242,0.0,0.0,44,0.00,,---,0.00,VWS V14.01,2013-01-22 05:35:00,
2013-01-21 22:40:00,27.1,8.1,29.85,SSW,205,0.0,0.0,44,0.00,,---,0.00,VWS V14.01,2013-01-22 05:40:00,
2013-01-21 22:45:00,26.6,8.1,29.85,WSW,254,0.0,0.0,45,0.00,,---,0.00,VWS V14.01,2013-01-22 05:45:00,
2013-01-21 22:50:00,26.1,8.1,29.85,WSW,247,0.0,0.0,46,0.00,,---,0.00,VWS V14.01,2013-01-22 05:50:00,
2013-01-21 22:55:00,26.1,8.1,29.85,SSW,213,0.0,0.0,46,0.00,,---,0.00,VWS V14.01,2013-01-22 05:55:00,
2013-01-21 23:00:00,25.7,7.8,29.85,WSW,249,0.0,0.0,46,0.00,,---,0.00,VWS V14.01,2013-01-22 06:00:00,
2013-01-21 23:05:00,25.3,7.9,29.82,WSW,254,0.0,0.0,47,0.00,,---,0.00,VWS V14.01,2013-01-22 06:05:00,
2013-01-21 23:10:00,24.6,8.6,29.82,WSW,253,0.0,0.0,50,0.00,,---,0.00,VWS V14.01,2013-01-22 06:10:00,
2013-01-21 23:15:00,24.4,8.5,29.82,WSW,256,0.0,0.0,50,0.00,,---,0.00,VWS V14.01,2013-01-22 06:15:00,
2013-01-21 23:20:00,24.4,8.9,29.85,WNW,291,2.2,4.0,51,0.00,,---,0.00,VWS V14.01,2013-01-22 06:20:00,
2013-01-21 23:25:00,24.6,9.1,29.85,West,263,0.0,0.0,51,0.00,,---,0.00,VWS V14.01,2013-01-22 06:25:00,
2013-01-21 23:30:00,24.6,8.6,29.85,WNW,285,3.1,3.1,50,0.00,,---,0.00,VWS V14.01,2013-01-22 06:30:00,
2013-01-21 23:35:00,24.8,8.4,29.85,WSW,253,2.7,2.7,49,0.00,,---,0.00,VWS V14.01,2013-01-22 06:35:00,
2013-01-21 23:40:00,24.8,7.9,29.85,West,261,0.0,4.0,48,0.00,,---,0.00,VWS V14.01,2013-01-22 06:40:00,
2013-01-21 23:45:00,25.2,7.8,29.85,West,260,0.0,0.0,47,0.00,,---,0.00,VWS V14.01,2013-01-22 06:45:00,
2013-01-21 23:50:00,25.0,7.1,29.85,WSW,251,0.0,2.7,46,0.00,,---,0.00,VWS V14.01,2013-01-22 06:50:00,
2013-01-21 23:55:00,25.2,6.8,29.85,WNW,289,3.6,3.6,45,0.00,,---,0.00,VWS V14.01,2013-01-22 06:55:00,